bureau de piste

Plus d’information sur les terrains : LFMD et VALBERG

METAR LFMD 191030Z AUTO 14007KT 080V190 9999 NCD 15/M02 Q1020 NOSIG

TAF LFMD 190800Z 1909/2009 VRB05KT 9999 FEW080   BECMG 1910/1912 11010KT   PROB30   TEMPO 1913/1917 SHRA BKN070TCU   BECMG 1919/1921 35005KT CAVOK

INFORMATION ADDS - 1044 UTC 19 Mar 2019

Les commentaires sont clos.